createdAt,value
2022-09-25T00:00:43.675Z,12.23
2022-09-25T00:03:12.463Z,11.77
2022-09-25T00:05:40.408Z,14.23
2022-09-25T00:08:07.752Z,12.48
2022-09-25T00:10:34.585Z,13.70
2022-09-25T00:13:01.067Z,13.27
2022-09-25T00:15:27.510Z,14.50
2022-09-25T00:17:53.977Z,13.43
2022-09-25T00:20:26.618Z,12.85
2022-09-25T00:22:53.679Z,11.63
2022-09-25T00:25:21.034Z,9.77
2022-09-25T00:27:50.240Z,8.40
2022-09-25T00:30:16.885Z,10.45
2022-09-25T00:32:43.358Z,9.20
2022-09-25T00:35:09.969Z,12.05
2022-09-25T00:37:37.107Z,12.50
2022-09-25T00:40:05.143Z,13.90
2022-09-25T00:42:33.052Z,14.88
2022-09-25T00:45:01.508Z,16.15
2022-09-25T00:47:38.986Z,16.98
2022-09-25T00:50:25.101Z,16.42
2022-09-25T00:52:54.489Z,18.55
2022-09-25T00:55:23.727Z,18.60
2022-09-25T00:57:54.014Z,16.63
2022-09-25T01:00:20.514Z,17.00
2022-09-25T01:02:55.288Z,15.88
2022-09-25T01:05:28.092Z,16.80
2022-09-25T01:07:57.361Z,16.05
2022-09-25T01:10:24.181Z,16.50
2022-09-25T01:12:52.166Z,17.13
2022-09-25T01:15:23.481Z,17.27
2022-09-25T01:18:03.491Z,16.60
2022-09-25T01:20:48.891Z,14.88
2022-09-25T01:23:21.351Z,13.75
2022-09-25T01:26:12.460Z,12.70
2022-09-25T01:29:05.954Z,12.68
2022-09-25T01:31:47.311Z,13.18
2022-09-25T01:34:20.418Z,14.13
2022-09-25T01:37:02.110Z,10.88
2022-09-25T01:39:35.489Z,10.65
2022-09-25T01:44:49.783Z,9.48
2022-09-25T01:47:23.917Z,9.45
2022-09-25T01:50:00.943Z,10.10
2022-09-25T01:52:35.271Z,9.90
2022-09-25T01:55:36.040Z,9.25
2022-09-25T01:58:14.643Z,8.70
2022-09-25T02:00:45.563Z,8.80
2022-09-25T02:03:18.075Z,9.35
2022-09-25T02:05:49.377Z,9.03
2022-09-25T02:08:25.231Z,9.05
2022-09-25T02:10:57.289Z,8.68
2022-09-25T02:13:29.301Z,8.50
2022-09-25T02:16:02.081Z,7.97
2022-09-25T02:18:48.117Z,8.15
2022-09-25T02:21:20.969Z,8.48
2022-09-25T02:24:05.889Z,8.25
2022-09-25T02:26:34.466Z,7.95
2022-09-25T02:29:02.441Z,7.65
2022-09-25T02:31:35.718Z,8.35
2022-09-25T02:36:32.358Z,9.13
2022-09-25T02:38:59.243Z,11.48
2022-09-25T02:41:40.803Z,10.90
2022-09-25T02:44:10.105Z,10.77
2022-09-25T02:46:56.104Z,12.05
2022-09-25T02:49:48.855Z,13.38
2022-09-25T02:52:54.224Z,12.73
2022-09-25T02:55:52.905Z,15.30
2022-09-25T02:58:50.882Z,14.07
2022-09-25T03:01:20.425Z,13.75
2022-09-25T03:03:49.939Z,11.77
2022-09-25T03:06:17.419Z,10.45
2022-09-25T03:08:49.261Z,10.55
2022-09-25T03:11:18.220Z,9.45
2022-09-25T03:13:44.717Z,9.02
2022-09-25T03:16:26.092Z,10.00
2022-09-25T03:18:52.618Z,10.52
2022-09-25T03:21:19.075Z,10.82
2022-09-25T03:23:45.507Z,11.48
2022-09-25T03:26:11.957Z,12.90
2022-09-25T03:28:38.538Z,12.57
2022-09-25T03:31:11.518Z,12.93
2022-09-25T03:33:40.337Z,13.40
2022-09-25T03:36:06.949Z,12.93
2022-09-25T03:38:34.021Z,14.05
2022-09-25T03:41:00.530Z,13.95
2022-09-25T03:43:27.021Z,14.35
2022-09-25T03:45:53.601Z,13.95
2022-09-25T03:48:20.097Z,13.43
2022-09-25T03:50:46.585Z,13.70
2022-09-25T03:53:13.137Z,14.05
2022-09-25T03:55:39.614Z,12.98
2022-09-25T03:58:06.030Z,13.10
2022-09-25T04:00:32.440Z,13.65
2022-09-25T04:02:59.394Z,13.98
2022-09-25T04:05:25.925Z,12.98
2022-09-25T04:07:52.338Z,13.60
2022-09-25T04:10:18.747Z,15.70
2022-09-25T04:12:45.146Z,14.23
2022-09-25T04:15:11.555Z,13.85
2022-09-25T04:17:37.953Z,15.32
2022-09-25T04:20:04.638Z,14.45
2022-09-25T04:22:31.029Z,14.30
2022-09-25T04:24:58.327Z,14.00
2022-09-25T04:27:24.956Z,12.98
2022-09-25T04:29:51.379Z,10.75
2022-09-25T04:32:36.134Z,11.40
2022-09-25T04:35:02.944Z,11.93
2022-09-25T04:37:29.444Z,11.35
2022-09-25T04:39:57.158Z,11.20
2022-09-25T04:42:24.755Z,11.68
2022-09-25T04:44:55.651Z,11.02
2022-09-25T04:47:23.185Z,10.70
2022-09-25T04:49:49.750Z,10.82
2022-09-25T04:52:17.762Z,10.88
2022-09-25T04:54:44.295Z,10.38
2022-09-25T04:57:27.385Z,12.52
2022-09-25T05:00:02.148Z,10.52
2022-09-25T05:02:28.889Z,11.02
2022-09-25T05:04:55.436Z,10.65
2022-09-25T05:07:21.878Z,11.18
2022-09-25T05:09:48.364Z,11.77
2022-09-25T05:12:15.697Z,11.73
2022-09-25T05:14:42.644Z,11.32
2022-09-25T05:17:11.238Z,10.68
2022-09-25T05:19:38.852Z,11.15
2022-09-25T05:22:05.418Z,11.57
2022-09-25T05:24:31.933Z,12.00
2022-09-25T05:26:58.914Z,11.25
2022-09-25T05:29:25.457Z,11.68
2022-09-25T05:31:51.974Z,10.50
2022-09-25T05:34:18.454Z,11.75
2022-09-25T05:36:44.929Z,13.30
2022-09-25T05:39:14.386Z,11.75
2022-09-25T05:41:41.196Z,12.77
2022-09-25T05:44:09.711Z,11.80
2022-09-25T05:46:37.071Z,12.75
2022-09-25T05:49:04.658Z,12.60
2022-09-25T05:51:32.521Z,14.27
2022-09-25T05:54:02.345Z,14.15
2022-09-25T05:56:29.636Z,14.07
2022-09-25T05:58:58.740Z,14.13
2022-09-25T06:01:26.152Z,14.05
2022-09-25T06:03:52.823Z,15.98
2022-09-25T06:06:22.544Z,14.63
2022-09-25T06:08:54.712Z,14.35
2022-09-25T06:11:22.296Z,14.60
2022-09-25T06:13:54.193Z,15.40
2022-09-25T06:16:21.245Z,15.95
2022-09-25T06:18:47.817Z,17.42
2022-09-25T06:21:14.388Z,18.00
2022-09-25T06:23:46.746Z,16.38
2022-09-25T06:26:14.093Z,15.48
2022-09-25T06:28:40.506Z,14.68
2022-09-25T06:31:07.352Z,13.40
2022-09-25T06:33:33.874Z,13.52
2022-09-25T06:36:00.838Z,9.25
2022-09-25T06:38:27.588Z,13.32
2022-09-25T06:40:57.238Z,12.48
2022-09-25T06:43:25.936Z,13.10
2022-09-25T06:45:52.492Z,14.23
2022-09-25T06:48:19.037Z,13.23
2022-09-25T06:50:47.446Z,13.38
2022-09-25T06:53:15.013Z,14.07
2022-09-25T06:55:41.577Z,14.68
2022-09-25T06:58:10.750Z,15.00
2022-09-25T07:00:37.172Z,16.33
2022-09-25T07:03:22.413Z,15.68
2022-09-25T07:05:49.380Z,15.45
2022-09-25T07:08:18.543Z,13.93
2022-09-25T07:10:52.653Z,14.00
2022-09-25T07:13:24.576Z,14.10
2022-09-25T07:15:55.640Z,14.48
2022-09-25T07:18:23.808Z,15.13
2022-09-25T07:20:51.475Z,15.55
2022-09-25T07:23:19.912Z,15.32
2022-09-25T07:25:47.488Z,13.52
2022-09-25T07:28:14.868Z,14.60
2022-09-25T07:30:42.325Z,13.52
2022-09-25T07:33:09.656Z,13.50
2022-09-25T07:35:37.446Z,13.45
2022-09-25T07:38:04.414Z,13.18
2022-09-25T07:40:35.247Z,12.80
2022-09-25T07:43:02.541Z,12.82
2022-09-25T07:45:29.501Z,12.52
2022-09-25T07:48:03.246Z,11.60
2022-09-25T07:50:31.898Z,10.75
2022-09-25T07:52:58.737Z,10.10
2022-09-25T07:55:25.380Z,10.48
2022-09-25T07:57:52.126Z,10.18
2022-09-25T08:00:18.778Z,10.43
2022-09-25T08:02:45.258Z,10.38
2022-09-25T08:05:11.784Z,10.13
2022-09-25T08:07:38.548Z,9.10
2022-09-25T08:10:05.634Z,9.55
2022-09-25T08:12:32.038Z,9.10
2022-09-25T08:14:58.445Z,8.38
2022-09-25T08:17:27.563Z,9.10
2022-09-25T08:19:54.248Z,8.40
2022-09-25T08:22:20.657Z,8.30
2022-09-25T08:24:47.184Z,7.90
2022-09-25T08:27:13.632Z,7.50
2022-09-25T08:29:40.904Z,7.60
2022-09-25T08:32:07.461Z,6.88
2022-09-25T08:34:41.046Z,7.03
2022-09-25T08:37:09.526Z,6.68
2022-09-25T08:39:36.088Z,7.22
2022-09-25T08:42:03.055Z,6.40
2022-09-25T08:44:48.957Z,6.70
2022-09-25T08:47:43.803Z,6.63
2022-09-25T08:50:14.853Z,6.55
2022-09-25T08:52:44.301Z,6.53
2022-09-25T08:55:50.280Z,6.18
2022-09-25T08:58:24.681Z,6.47
2022-09-25T09:00:57.547Z,7.47
2022-09-25T09:03:25.725Z,6.63
2022-09-25T09:06:00.092Z,7.00
2022-09-25T09:08:29.711Z,7.10
2022-09-25T09:11:37.846Z,6.80
2022-09-25T09:14:13.187Z,6.53
2022-09-25T09:16:49.780Z,6.22
2022-09-25T09:19:16.257Z,5.95
2022-09-25T09:22:02.166Z,6.30
2022-09-25T09:25:02.618Z,7.03
2022-09-25T09:27:43.824Z,6.18
2022-09-25T09:30:10.350Z,7.55
2022-09-25T09:32:48.355Z,6.28
2022-09-25T09:35:24.243Z,7.20
2022-09-25T09:38:05.018Z,7.15
2022-09-25T09:40:49.346Z,9.43
2022-09-25T09:43:44.015Z,8.52
2022-09-25T09:46:49.613Z,7.93
2022-09-25T09:49:51.068Z,6.93
2022-09-25T09:52:21.946Z,7.05
2022-09-25T09:54:53.815Z,6.80
2022-09-25T09:57:26.644Z,6.85
2022-09-25T10:00:05.839Z,7.65
2022-09-25T10:02:52.773Z,7.72
2022-09-25T10:05:32.641Z,6.70
2022-09-25T10:07:59.390Z,6.68
2022-09-25T10:10:35.678Z,6.63
2022-09-25T10:13:06.676Z,7.03
2022-09-25T10:15:38.865Z,8.25
2022-09-25T10:18:06.678Z,7.80
2022-09-25T10:20:48.084Z,8.68
2022-09-25T10:23:40.559Z,8.93
2022-09-25T10:26:39.902Z,8.95
2022-09-25T10:29:21.374Z,9.27
2022-09-25T10:31:48.569Z,10.15
2022-09-25T10:34:22.163Z,10.02
2022-09-25T10:36:51.637Z,9.30
2022-09-25T10:39:45.071Z,9.63
2022-09-25T10:44:59.470Z,9.00
2022-09-25T10:47:49.813Z,8.25
2022-09-25T10:50:21.510Z,9.77
2022-09-25T10:52:59.139Z,11.52
2022-09-25T10:55:28.775Z,9.95
2022-09-25T10:58:10.456Z,9.93
2022-09-25T11:00:44.007Z,10.43
2022-09-25T11:03:21.755Z,9.98
2022-09-25T11:06:03.847Z,8.52
2022-09-25T11:08:34.394Z,9.45
2022-09-25T11:11:03.047Z,9.25
2022-09-25T11:13:40.331Z,9.25
2022-09-25T11:16:10.258Z,8.20
2022-09-25T11:19:05.931Z,8.10
2022-09-25T11:21:38.890Z,8.68
2022-09-25T11:24:49.233Z,7.93
2022-09-25T11:27:26.414Z,7.13
2022-09-25T11:30:14.272Z,8.07
2022-09-25T11:32:53.059Z,7.18
2022-09-25T11:35:34.628Z,7.15
2022-09-25T11:38:43.655Z,7.35
2022-09-25T11:41:35.195Z,8.05
2022-09-25T11:44:27.578Z,7.25
2022-09-25T11:47:05.965Z,5.40
2022-09-25T11:49:38.629Z,6.72
2022-09-25T11:52:37.411Z,6.68
2022-09-25T11:55:27.699Z,7.30
2022-09-25T11:58:03.399Z,7.00
2022-09-25T12:01:04.453Z,8.00
2022-09-25T12:03:46.598Z,7.35
2022-09-25T12:06:22.345Z,8.27
2022-09-25T12:08:55.664Z,7.47
2022-09-25T12:11:46.616Z,6.75
2022-09-25T12:14:17.230Z,7.28
2022-09-25T12:17:01.113Z,6.50
2022-09-25T12:19:52.180Z,7.15
2022-09-25T12:22:43.672Z,6.00
2022-09-25T12:25:22.014Z,6.15
2022-09-25T12:27:53.291Z,5.40
2022-09-25T12:30:24.543Z,5.22
2022-09-25T12:33:06.325Z,6.30
2022-09-25T12:35:53.895Z,5.38
2022-09-25T12:38:30.180Z,6.30
2022-09-25T12:41:09.465Z,6.10
2022-09-25T12:43:52.010Z,6.32
2022-09-25T12:46:22.416Z,6.28
2022-09-25T12:48:54.560Z,5.90
2022-09-25T12:51:38.027Z,5.50
2022-09-25T12:54:32.257Z,5.93
2022-09-25T12:57:49.875Z,5.10
2022-09-25T13:00:25.835Z,4.22
2022-09-25T13:03:08.562Z,4.68
2022-09-25T13:05:52.182Z,4.60
2022-09-25T13:08:34.276Z,4.20
2022-09-25T13:11:07.571Z,4.00
2022-09-25T13:13:43.326Z,4.43
2022-09-25T13:16:09.859Z,7.65
2022-09-25T13:18:36.459Z,6.82
2022-09-25T13:21:29.668Z,6.65
2022-09-25T13:23:57.042Z,4.97
2022-09-25T13:26:26.840Z,4.20
2022-09-25T13:29:01.585Z,4.88
2022-09-25T13:31:34.453Z,4.53
2022-09-25T13:36:45.800Z,3.50
2022-09-25T13:39:49.502Z,4.47
2022-09-25T13:45:07.819Z,3.88
2022-09-25T13:47:38.186Z,3.47
2022-09-25T13:50:10.624Z,5.20
2022-09-25T13:52:36.979Z,31.30
2022-09-25T13:55:20.153Z,9.93
2022-09-25T13:57:58.918Z,4.45
2022-09-25T14:00:28.014Z,2.97
2022-09-25T14:03:01.079Z,2.30
2022-09-25T14:08:14.586Z,1.65
2022-09-25T14:10:47.546Z,2.60
2022-09-25T14:13:15.978Z,1.77
2022-09-25T14:15:45.004Z,2.30
2022-09-25T14:18:19.402Z,2.05
2022-09-25T14:20:50.158Z,2.17
2022-09-25T14:23:29.837Z,1.90
2022-09-25T14:25:58.422Z,2.03
2022-09-25T14:28:30.547Z,2.20
2022-09-25T14:31:11.425Z,2.50
2022-09-25T14:34:02.955Z,2.15
2022-09-25T14:36:37.883Z,2.85
2022-09-25T14:39:20.174Z,1.88
2022-09-25T14:42:06.830Z,2.28
2022-09-25T14:45:13.957Z,2.58
2022-09-25T14:47:46.329Z,2.75
2022-09-25T14:50:23.950Z,2.37
2022-09-25T14:52:57.133Z,2.30
2022-09-25T14:57:53.011Z,2.70
2022-09-25T15:00:24.302Z,2.70
2022-09-25T15:02:57.150Z,2.83
2022-09-25T15:05:26.709Z,2.90
2022-09-25T15:07:59.349Z,3.17
2022-09-25T15:10:38.530Z,3.67
2022-09-25T15:13:18.048Z,3.10
2022-09-25T15:16:12.479Z,2.75
2022-09-25T15:18:41.923Z,2.90
2022-09-25T15:21:21.497Z,2.60
2022-09-25T15:23:48.668Z,2.70
2022-09-25T15:26:18.608Z,2.70
2022-09-25T15:28:45.945Z,3.20
2022-09-25T15:31:12.900Z,2.97
2022-09-25T15:33:40.626Z,3.10
2022-09-25T15:36:17.047Z,2.78
2022-09-25T15:38:44.578Z,3.35
2022-09-25T15:41:15.747Z,3.40
2022-09-25T15:43:42.202Z,3.38
2022-09-25T15:46:08.935Z,2.97
2022-09-25T15:48:52.071Z,3.70
2022-09-25T15:51:25.232Z,2.80
2022-09-25T15:56:27.504Z,2.72
2022-09-25T15:59:01.338Z,3.60
2022-09-25T16:01:49.359Z,3.60
2022-09-25T16:04:40.526Z,3.22
2022-09-25T16:07:23.994Z,3.67
2022-09-25T16:12:20.618Z,3.28
2022-09-25T16:14:47.684Z,3.20
2022-09-25T16:17:37.534Z,3.15
2022-09-25T16:20:28.315Z,3.70
2022-09-25T16:22:57.571Z,2.85
2022-09-25T16:25:32.150Z,3.03
2022-09-25T16:28:16.029Z,3.10
2022-09-25T16:31:04.441Z,3.00
2022-09-25T16:33:34.973Z,3.05
2022-09-25T16:36:14.577Z,3.67
2022-09-25T16:39:02.770Z,2.92
2022-09-25T16:41:29.954Z,2.78
2022-09-25T16:44:39.794Z,3.58
2022-09-25T16:47:21.016Z,3.45
2022-09-25T16:49:49.387Z,3.28
2022-09-25T16:52:22.243Z,3.05
2022-09-25T16:54:56.917Z,3.38
2022-09-25T16:57:27.677Z,3.25
2022-09-25T16:59:54.181Z,3.33
2022-09-25T17:02:33.331Z,3.10
2022-09-25T17:05:02.516Z,2.95
2022-09-25T17:07:29.589Z,3.55
2022-09-25T17:09:56.214Z,3.00
2022-09-25T17:12:25.533Z,3.17
2022-09-25T17:14:52.720Z,3.03
2022-09-25T17:17:21.971Z,2.80
2022-09-25T17:19:50.324Z,2.70
2022-09-25T17:22:17.493Z,3.28
2022-09-25T17:24:44.229Z,3.08
2022-09-25T17:27:15.422Z,3.80
2022-09-25T17:29:42.558Z,3.13
2022-09-25T17:32:14.069Z,3.67
2022-09-25T17:34:41.534Z,3.45
2022-09-25T17:37:07.953Z,3.30
2022-09-25T17:39:34.440Z,4.30
2022-09-25T17:42:02.607Z,3.90
2022-09-25T17:44:29.158Z,4.25
2022-09-25T17:46:55.882Z,4.22
2022-09-25T17:49:23.376Z,4.30
2022-09-25T17:51:50.398Z,3.83
2022-09-25T17:54:17.295Z,3.97
2022-09-25T17:56:45.311Z,3.47
2022-09-25T17:59:14.523Z,4.88
2022-09-25T18:01:41.615Z,3.83
2022-09-25T18:04:22.023Z,3.78
2022-09-25T18:06:49.047Z,3.88
2022-09-25T18:09:15.755Z,3.90
2022-09-25T18:11:44.083Z,4.50
2022-09-25T18:14:12.731Z,4.45
2022-09-25T18:16:41.795Z,4.97
2022-09-25T18:19:50.672Z,4.82
2022-09-25T18:22:17.531Z,4.70
2022-09-25T18:24:45.030Z,5.43
2022-09-25T18:27:12.374Z,7.28
2022-09-25T18:29:38.832Z,6.80
2022-09-25T18:32:05.474Z,5.43
2022-09-25T18:34:31.903Z,4.78
2022-09-25T18:36:58.294Z,4.43
2022-09-25T18:39:24.800Z,4.05
2022-09-25T18:41:51.351Z,4.10
2022-09-25T18:44:19.415Z,4.47
2022-09-25T18:46:45.942Z,3.63
2022-09-25T18:49:12.605Z,3.72
2022-09-25T18:51:39.996Z,3.47
2022-09-25T18:54:06.492Z,3.78
2022-09-25T18:56:34.604Z,3.80
2022-09-25T18:59:04.355Z,4.10
2022-09-25T19:01:31.041Z,4.43
2022-09-25T19:03:57.634Z,3.80
2022-09-25T19:06:24.069Z,3.90
2022-09-25T19:08:53.262Z,4.22
2022-09-25T19:11:23.263Z,3.70
2022-09-25T19:13:49.922Z,3.40
2022-09-25T19:16:17.867Z,4.00
2022-09-25T19:18:45.152Z,3.85
2022-09-25T19:21:15.867Z,3.65
2022-09-25T19:23:43.354Z,3.78
2022-09-25T19:26:15.017Z,4.13
2022-09-25T19:28:41.949Z,3.28
2022-09-25T19:31:14.681Z,3.83
2022-09-25T19:33:41.283Z,3.97
2022-09-25T19:36:12.857Z,3.90
2022-09-25T19:38:40.273Z,3.75
2022-09-25T19:41:22.779Z,3.67
2022-09-25T19:43:49.596Z,3.58
2022-09-25T19:46:20.198Z,3.70
2022-09-25T19:48:48.474Z,3.55
2022-09-25T19:51:16.667Z,4.10
2022-09-25T19:53:43.775Z,5.53
2022-09-25T19:56:11.172Z,5.35
2022-09-25T19:58:40.830Z,5.20
2022-09-25T20:01:13.048Z,6.35
2022-09-25T20:03:40.173Z,6.00
2022-09-25T20:06:07.568Z,5.47
2022-09-25T20:08:34.238Z,5.60
2022-09-25T20:11:09.651Z,4.75
2022-09-25T20:13:36.235Z,4.47
2022-09-25T20:16:11.233Z,4.57
2022-09-25T20:18:37.882Z,4.30
2022-09-25T20:21:05.411Z,4.30
2022-09-25T20:23:31.956Z,3.58
2022-09-25T20:26:08.783Z,4.15
2022-09-25T20:28:37.253Z,4.05
2022-09-25T20:31:06.282Z,4.93
2022-09-25T20:33:35.528Z,4.60
2022-09-25T20:36:04.056Z,4.50
2022-09-25T20:38:30.600Z,5.28
2022-09-25T20:41:00.931Z,4.95
2022-09-25T20:43:28.089Z,4.40
2022-09-25T20:46:06.875Z,4.63
2022-09-25T20:48:38.306Z,4.50
2022-09-25T20:51:06.943Z,4.90
2022-09-25T20:53:33.622Z,5.07
2022-09-25T20:56:06.865Z,4.45
2022-09-25T21:01:02.673Z,3.42
2022-09-25T21:03:34.092Z,4.32
2022-09-25T21:06:02.157Z,3.65
2022-09-25T21:08:32.567Z,3.90
2022-09-25T21:11:02.226Z,4.32
2022-09-25T21:13:30.032Z,3.90
2022-09-25T21:16:11.914Z,3.60
2022-09-25T21:18:40.925Z,3.30
2022-09-25T21:21:10.521Z,4.20
2022-09-25T21:23:37.485Z,3.95
2022-09-25T21:26:13.649Z,3.28
2022-09-25T21:28:42.607Z,3.75
2022-09-25T21:31:13.169Z,3.63
2022-09-25T21:33:40.341Z,3.63
2022-09-25T21:36:10.647Z,3.75
2022-09-25T21:38:37.303Z,3.72
2022-09-25T21:41:06.659Z,4.05
2022-09-25T21:43:35.000Z,3.88
2022-09-25T21:46:08.577Z,4.18
2022-09-25T21:48:38.121Z,3.35
2022-09-25T21:51:07.232Z,3.63
2022-09-25T21:53:34.649Z,3.85
2022-09-25T21:56:12.646Z,4.28
2022-09-25T21:58:39.684Z,4.07
2022-09-25T22:01:07.691Z,4.60
2022-09-25T22:03:35.426Z,4.28
2022-09-25T22:06:04.407Z,4.50
2022-09-25T22:08:31.421Z,4.38
2022-09-25T22:10:59.704Z,4.60
2022-09-25T22:13:28.304Z,4.75
2022-09-25T22:16:01.822Z,4.78
2022-09-25T22:18:29.331Z,4.90
2022-09-25T22:20:56.038Z,5.55
2022-09-25T22:23:23.952Z,4.90
2022-09-25T22:25:53.222Z,5.28
2022-09-25T22:28:20.853Z,4.78
2022-09-25T22:30:47.932Z,4.82
2022-09-25T22:33:14.373Z,5.10
2022-09-25T22:35:40.811Z,5.60
2022-09-25T22:38:07.273Z,5.72
2022-09-25T22:40:37.716Z,5.53
2022-09-25T22:43:05.462Z,6.00
2022-09-25T22:45:33.076Z,5.82
2022-09-25T22:48:00.197Z,5.32
2022-09-25T22:50:27.344Z,5.78
2022-09-25T22:52:58.355Z,5.72
2022-09-25T22:55:26.116Z,5.85
2022-09-25T22:57:52.625Z,6.03
2022-09-25T23:00:19.100Z,6.20
2022-09-25T23:02:45.590Z,6.78
2022-09-25T23:05:12.738Z,6.50
2022-09-25T23:07:39.226Z,6.05
2022-09-25T23:10:06.484Z,5.50
2022-09-25T23:12:32.953Z,6.25
2022-09-25T23:14:59.386Z,5.45
2022-09-25T23:17:26.494Z,6.35
2022-09-25T23:19:52.922Z,6.53
2022-09-25T23:22:19.992Z,6.32
2022-09-25T23:24:46.369Z,5.90
2022-09-25T23:27:12.792Z,5.60
2022-09-25T23:29:39.221Z,6.63
2022-09-25T23:32:08.060Z,6.45
2022-09-25T23:34:34.565Z,6.65
2022-09-25T23:37:00.982Z,6.97
2022-09-25T23:39:27.438Z,6.63
2022-09-25T23:41:53.891Z,6.07
2022-09-25T23:44:20.418Z,6.82
2022-09-25T23:46:46.871Z,6.85
2022-09-25T23:49:13.928Z,6.75
2022-09-25T23:51:40.638Z,6.50
2022-09-25T23:54:07.525Z,7.22
2022-09-25T23:56:35.212Z,6.63
2022-09-25T23:59:02.385Z,6.43
